createdAt,value
2017-10-26T00:00:49.197Z,7.27
2017-10-26T00:03:16.081Z,7.43
2017-10-26T00:05:42.911Z,8.17
2017-10-26T00:08:09.786Z,7.00
2017-10-26T00:10:36.607Z,7.13
2017-10-26T00:13:03.427Z,8.07
2017-10-26T00:15:30.258Z,8.07
2017-10-26T00:17:57.104Z,8.07
2017-10-26T00:20:23.948Z,7.90
2017-10-26T00:22:50.808Z,8.13
2017-10-26T00:25:17.661Z,8.40
2017-10-26T00:27:44.470Z,8.70
2017-10-26T00:30:11.299Z,9.43
2017-10-26T00:32:38.137Z,9.33
2017-10-26T00:35:05.324Z,8.60
2017-10-26T00:37:32.213Z,8.67
2017-10-26T00:39:59.105Z,8.30
2017-10-26T00:42:26.222Z,8.20
2017-10-26T00:44:53.079Z,9.40
2017-10-26T00:47:19.936Z,9.13
2017-10-26T00:49:47.059Z,6.97
2017-10-26T00:52:14.221Z,8.00
2017-10-26T00:54:41.073Z,7.90
2017-10-26T00:57:08.208Z,7.60
2017-10-26T00:59:35.040Z,9.13
2017-10-26T01:02:01.875Z,8.70
2017-10-26T01:04:28.741Z,9.53
2017-10-26T01:06:55.590Z,8.80
2017-10-26T01:09:22.407Z,9.80
2017-10-26T01:11:49.274Z,10.53
2017-10-26T01:14:16.155Z,10.30
2017-10-26T01:16:42.980Z,8.50
2017-10-26T01:19:09.848Z,8.33
2017-10-26T01:21:36.703Z,8.40
2017-10-26T01:24:03.547Z,8.37
2017-10-26T01:26:30.736Z,8.00
2017-10-26T01:28:57.609Z,8.90
2017-10-26T01:31:24.474Z,9.07
2017-10-26T01:33:51.312Z,9.50
2017-10-26T01:36:18.171Z,9.10
2017-10-26T01:38:45.020Z,10.27
2017-10-26T01:41:12.099Z,10.13
2017-10-26T01:43:39.002Z,10.73
2017-10-26T01:46:05.873Z,11.77
2017-10-26T01:48:33.035Z,9.50
2017-10-26T01:51:00.196Z,8.67
2017-10-26T01:53:27.039Z,10.50
2017-10-26T01:55:53.903Z,10.37
2017-10-26T01:58:20.781Z,8.50
2017-10-26T02:00:47.648Z,9.00
2017-10-26T02:03:14.479Z,8.80
2017-10-26T02:05:41.665Z,8.27
2017-10-26T02:08:08.511Z,9.07
2017-10-26T02:10:35.337Z,9.97
2017-10-26T02:13:02.207Z,10.23
2017-10-26T02:15:29.104Z,8.10
2017-10-26T02:17:55.966Z,8.93
2017-10-26T02:20:22.823Z,9.67
2017-10-26T02:22:49.667Z,9.10
2017-10-26T02:25:16.816Z,10.37
2017-10-26T02:27:43.965Z,9.40
2017-10-26T02:30:17.058Z,10.10
2017-10-26T02:32:43.964Z,11.33
2017-10-26T02:35:11.153Z,10.10
2017-10-26T02:37:38.299Z,10.17
2017-10-26T02:40:05.139Z,10.97
2017-10-26T02:42:32.297Z,11.70
2017-10-26T02:44:59.118Z,11.17
2017-10-26T02:47:26.283Z,11.60
2017-10-26T02:49:53.107Z,11.37
2017-10-26T02:52:19.952Z,11.60
2017-10-26T02:54:47.125Z,10.10
2017-10-26T02:57:13.964Z,11.20
2017-10-26T02:59:40.782Z,11.20
2017-10-26T03:02:07.631Z,10.53
2017-10-26T03:04:34.805Z,13.07
2017-10-26T03:07:01.647Z,11.73
2017-10-26T03:09:28.527Z,12.00
2017-10-26T03:11:55.407Z,12.10
2017-10-26T03:14:22.242Z,13.80
2017-10-26T03:16:49.422Z,13.40
2017-10-26T03:19:16.288Z,13.67
2017-10-26T03:21:43.156Z,12.90
2017-10-26T03:24:10.038Z,13.50
2017-10-26T03:26:37.104Z,14.37
2017-10-26T03:29:04.171Z,14.13
2017-10-26T03:31:31.035Z,12.80
2017-10-26T03:33:58.151Z,13.33
2017-10-26T03:36:25.294Z,13.50
2017-10-26T03:38:52.452Z,14.50
2017-10-26T03:41:19.267Z,14.10
2017-10-26T03:43:46.444Z,15.90
2017-10-26T03:46:13.313Z,13.63
2017-10-26T03:48:40.139Z,14.80
2017-10-26T03:51:06.951Z,16.10
2017-10-26T03:53:33.834Z,15.77
2017-10-26T03:56:00.693Z,14.90
2017-10-26T03:58:27.510Z,14.83
2017-10-26T04:00:54.656Z,16.30
2017-10-26T04:03:21.501Z,15.17
2017-10-26T04:05:48.356Z,14.40
2017-10-26T04:08:15.232Z,16.10
2017-10-26T04:10:42.060Z,14.30
2017-10-26T04:13:08.901Z,15.27
2017-10-26T04:15:36.015Z,15.13
2017-10-26T04:18:02.864Z,15.40
2017-10-26T04:20:30.016Z,16.50
2017-10-26T04:22:56.852Z,16.13
2017-10-26T04:25:23.903Z,16.07
2017-10-26T04:27:51.056Z,17.00
2017-10-26T04:30:18.105Z,18.93
2017-10-26T04:32:45.159Z,18.33
2017-10-26T04:35:12.024Z,18.33
2017-10-26T04:37:39.254Z,17.73
2017-10-26T04:40:06.063Z,17.57
2017-10-26T04:42:32.907Z,18.53
2017-10-26T04:44:59.779Z,19.53
2017-10-26T04:47:26.628Z,18.60
2017-10-26T04:49:53.464Z,20.63
2017-10-26T04:52:20.315Z,21.93
2017-10-26T04:54:47.165Z,21.53
2017-10-26T04:57:14.013Z,19.83
2017-10-26T04:59:40.877Z,19.57
2017-10-26T05:02:07.980Z,19.80
2017-10-26T05:04:35.064Z,18.97
2017-10-26T05:07:01.932Z,19.80
2017-10-26T05:09:28.789Z,20.37
2017-10-26T05:11:55.869Z,23.00
2017-10-26T05:14:23.020Z,21.17
2017-10-26T05:16:49.880Z,22.20
2017-10-26T05:19:16.724Z,30.27
2017-10-26T05:21:43.572Z,22.17
2017-10-26T05:24:17.401Z,22.57
2017-10-26T05:26:45.633Z,23.03
2017-10-26T05:29:12.957Z,21.87
2017-10-26T05:31:39.861Z,22.10
2017-10-26T05:34:06.744Z,20.53
2017-10-26T05:36:33.597Z,19.17
2017-10-26T05:39:00.768Z,18.40
2017-10-26T05:41:27.651Z,20.67
2017-10-26T05:43:54.528Z,19.43
2017-10-26T05:46:21.392Z,20.10
2017-10-26T05:48:48.287Z,19.87
2017-10-26T05:51:16.317Z,20.23
2017-10-26T05:53:43.466Z,20.60
2017-10-26T05:56:10.324Z,19.80
2017-10-26T05:58:37.394Z,19.97
2017-10-26T06:01:04.288Z,19.30
2017-10-26T06:03:31.450Z,19.10
2017-10-26T06:05:58.310Z,21.17
2017-10-26T06:08:25.177Z,20.57
2017-10-26T06:10:51.996Z,21.67
2017-10-26T06:13:19.128Z,22.10
2017-10-26T06:15:45.975Z,21.10
2017-10-26T06:18:12.840Z,21.87
2017-10-26T06:20:39.705Z,21.40
2017-10-26T06:23:06.539Z,21.70
2017-10-26T06:25:33.402Z,21.77
2017-10-26T06:28:00.222Z,21.60
2017-10-26T06:30:27.091Z,21.60
2017-10-26T06:32:53.948Z,20.87
2017-10-26T06:35:20.801Z,19.23
2017-10-26T06:37:47.660Z,20.97
2017-10-26T06:40:14.813Z,19.60
2017-10-26T06:42:41.689Z,20.17
2017-10-26T06:45:08.504Z,20.30
2017-10-26T06:47:35.319Z,21.27
2017-10-26T06:52:46.614Z,21.70
2017-10-26T06:55:13.681Z,20.20
2017-10-26T06:57:40.506Z,20.47
2017-10-26T07:00:07.314Z,19.87
2017-10-26T07:02:34.163Z,20.27
2017-10-26T07:05:00.956Z,20.10
2017-10-26T07:07:27.799Z,19.87
2017-10-26T07:09:54.595Z,19.23
2017-10-26T07:12:21.415Z,17.90
2017-10-26T07:14:48.226Z,17.47
2017-10-26T07:17:15.046Z,16.13
2017-10-26T07:19:41.867Z,15.97
2017-10-26T07:22:08.658Z,17.87
2017-10-26T07:24:35.480Z,16.87
2017-10-26T07:27:02.536Z,17.03
2017-10-26T07:29:29.319Z,15.57
2017-10-26T07:31:56.425Z,17.30
2017-10-26T07:34:23.434Z,15.13
2017-10-26T07:36:50.521Z,13.90
2017-10-26T07:39:17.373Z,14.17
2017-10-26T07:41:44.162Z,14.00
2017-10-26T07:44:10.997Z,13.30
2017-10-26T07:46:38.104Z,13.67
2017-10-26T07:49:05.257Z,14.23
2017-10-26T07:51:32.070Z,12.40
2017-10-26T07:53:58.878Z,15.03
2017-10-26T07:56:25.710Z,13.50
2017-10-26T07:58:52.835Z,11.93
2017-10-26T08:01:19.706Z,10.77
2017-10-26T08:03:46.498Z,11.80
2017-10-26T08:06:13.567Z,12.63
2017-10-26T08:08:40.646Z,12.03
2017-10-26T08:11:07.768Z,11.13
2017-10-26T08:13:34.576Z,10.20
2017-10-26T08:16:01.756Z,9.43
2017-10-26T08:18:28.542Z,10.77
2017-10-26T08:20:55.338Z,11.03
2017-10-26T08:23:22.208Z,11.60
2017-10-26T08:25:49.032Z,9.23
2017-10-26T08:28:15.843Z,10.00
2017-10-26T08:30:42.647Z,10.30
2017-10-26T08:33:09.759Z,13.60
2017-10-26T08:35:36.538Z,10.23
2017-10-26T08:38:03.375Z,9.60
2017-10-26T08:40:30.174Z,9.67
2017-10-26T08:42:57.005Z,10.23
2017-10-26T08:45:24.076Z,9.97
2017-10-26T08:47:50.919Z,10.63
2017-10-26T08:50:17.766Z,10.70
2017-10-26T08:52:44.916Z,10.23
2017-10-26T08:55:11.740Z,9.20
2017-10-26T08:57:38.541Z,9.60
2017-10-26T09:00:05.384Z,10.30
2017-10-26T09:02:32.167Z,9.50
2017-10-26T09:04:59.026Z,9.73
2017-10-26T09:07:25.843Z,9.30
2017-10-26T09:09:52.645Z,9.97
2017-10-26T09:12:19.523Z,8.90
2017-10-26T09:14:46.359Z,8.37
2017-10-26T09:17:13.193Z,9.13
2017-10-26T09:19:40.048Z,10.00
2017-10-26T09:22:06.826Z,9.90
2017-10-26T09:24:33.687Z,8.80
2017-10-26T09:27:00.510Z,11.30
2017-10-26T09:29:27.321Z,10.60
2017-10-26T09:31:54.163Z,22.30
2017-10-26T09:34:21.241Z,10.53
2017-10-26T09:36:48.400Z,10.27
2017-10-26T09:39:15.197Z,10.20
2017-10-26T09:41:42.057Z,10.13
2017-10-26T09:44:08.866Z,10.93
2017-10-26T09:46:35.653Z,10.20
2017-10-26T09:49:02.814Z,11.63
2017-10-26T09:51:29.623Z,10.17
2017-10-26T09:53:56.433Z,11.50
2017-10-26T09:56:23.554Z,12.50
2017-10-26T09:58:50.593Z,13.40
2017-10-26T10:01:17.422Z,13.90
2017-10-26T10:03:44.283Z,12.53
2017-10-26T10:06:11.099Z,12.10
2017-10-26T10:08:38.179Z,13.03
2017-10-26T10:11:05.031Z,14.00
2017-10-26T10:13:32.271Z,14.60
2017-10-26T10:15:59.090Z,16.30
2017-10-26T10:18:26.698Z,17.27
2017-10-26T10:20:53.821Z,15.40
2017-10-26T10:23:20.650Z,16.60
2017-10-26T10:25:47.521Z,16.43
2017-10-26T10:28:14.321Z,17.27
2017-10-26T10:30:41.163Z,20.97
2017-10-26T10:33:08.023Z,18.60
2017-10-26T10:35:34.860Z,19.40
2017-10-26T10:38:01.935Z,18.43
2017-10-26T10:40:28.766Z,20.93
2017-10-26T10:42:55.587Z,21.17
2017-10-26T10:45:22.431Z,20.90
2017-10-26T10:47:49.506Z,19.17
2017-10-26T10:50:16.305Z,19.00
2017-10-26T10:52:43.402Z,22.97
2017-10-26T10:55:10.215Z,18.57
2017-10-26T10:57:37.050Z,21.60
2017-10-26T11:00:04.130Z,20.30
2017-10-26T11:02:30.945Z,18.40
2017-10-26T11:04:58.025Z,17.73
2017-10-26T11:07:24.822Z,20.50
2017-10-26T11:09:51.661Z,20.53
2017-10-26T11:12:18.474Z,22.20
2017-10-26T11:14:45.291Z,21.40
2017-10-26T11:17:12.149Z,22.67
2017-10-26T11:19:38.949Z,23.47
2017-10-26T11:22:05.785Z,23.20
2017-10-26T11:24:32.632Z,20.70
2017-10-26T11:26:59.487Z,23.43
2017-10-26T11:29:26.356Z,22.83
2017-10-26T11:31:53.399Z,23.07
2017-10-26T11:34:20.215Z,24.57
2017-10-26T11:36:47.082Z,24.33
2017-10-26T11:39:13.886Z,24.33
2017-10-26T11:41:40.701Z,23.37
2017-10-26T11:44:07.923Z,21.80
2017-10-26T11:46:34.775Z,24.83
2017-10-26T11:49:01.573Z,24.83
2017-10-26T11:51:28.414Z,24.07
2017-10-26T11:53:55.262Z,23.80
2017-10-26T11:56:22.107Z,24.27
2017-10-26T11:58:48.959Z,23.73
2017-10-26T12:01:15.798Z,22.87
2017-10-26T12:03:42.875Z,25.13
2017-10-26T12:06:09.987Z,25.90
2017-10-26T12:08:36.819Z,23.87
2017-10-26T12:11:03.920Z,25.20
2017-10-26T12:13:31.068Z,26.60
2017-10-26T12:15:57.857Z,26.57
2017-10-26T12:18:24.670Z,25.90
2017-10-26T12:20:51.543Z,23.33
2017-10-26T12:23:18.341Z,27.40
2017-10-26T12:25:45.188Z,23.97
2017-10-26T12:28:12.332Z,23.47
2017-10-26T12:30:39.174Z,23.97
2017-10-26T12:33:05.997Z,26.67
2017-10-26T12:35:32.838Z,23.73
2017-10-26T12:37:59.688Z,24.40
2017-10-26T12:40:26.491Z,22.53
2017-10-26T12:42:53.327Z,21.43
2017-10-26T12:45:20.132Z,18.13
2017-10-26T12:47:47.174Z,20.50
2017-10-26T12:50:14.008Z,19.30
2017-10-26T12:52:40.819Z,20.87
2017-10-26T12:55:07.624Z,20.30
2017-10-26T12:57:34.492Z,18.90
2017-10-26T13:00:01.339Z,21.60
2017-10-26T13:02:28.175Z,21.13
2017-10-26T13:04:55.032Z,24.33
2017-10-26T13:07:21.874Z,22.47
2017-10-26T13:09:48.679Z,23.20
2017-10-26T13:12:15.527Z,21.20
2017-10-26T13:14:42.370Z,19.93
2017-10-26T13:17:09.185Z,20.23
2017-10-26T13:19:36.030Z,20.17
2017-10-26T13:22:03.188Z,21.93
2017-10-26T13:24:30.336Z,18.40
2017-10-26T13:26:57.147Z,21.70
2017-10-26T13:29:23.955Z,19.90
2017-10-26T13:31:50.747Z,19.27
2017-10-26T13:34:17.562Z,18.77
2017-10-26T13:36:44.339Z,20.17
2017-10-26T13:39:11.164Z,18.63
2017-10-26T13:41:37.981Z,19.53
2017-10-26T13:44:04.779Z,17.10
2017-10-26T13:46:31.818Z,18.20
2017-10-26T13:48:58.683Z,16.57
2017-10-26T13:51:25.474Z,17.83
2017-10-26T13:53:52.291Z,17.47
2017-10-26T13:56:19.123Z,16.20
2017-10-26T13:58:45.943Z,16.20
2017-10-26T14:01:12.745Z,16.80
2017-10-26T14:03:39.625Z,15.90
2017-10-26T14:06:06.415Z,16.30
2017-10-26T14:08:33.232Z,16.57
2017-10-26T14:11:00.080Z,16.00
2017-10-26T14:13:26.932Z,16.73
2017-10-26T14:15:54.039Z,16.73
2017-10-26T14:18:21.191Z,15.83
2017-10-26T14:20:47.978Z,14.67
2017-10-26T14:23:15.090Z,15.37
2017-10-26T14:25:41.897Z,13.73
2017-10-26T14:28:08.970Z,17.50
2017-10-26T14:30:35.759Z,14.60
2017-10-26T14:33:02.604Z,12.20
2017-10-26T14:35:29.711Z,12.67
2017-10-26T14:37:56.493Z,14.07
2017-10-26T14:40:23.599Z,12.50
2017-10-26T14:42:50.380Z,13.50
2017-10-26T14:45:17.173Z,12.80
2017-10-26T14:47:44.017Z,12.50
2017-10-26T14:50:10.828Z,12.07
2017-10-26T14:52:37.871Z,11.10
2017-10-26T14:55:04.682Z,11.53
2017-10-26T14:57:31.735Z,12.17
2017-10-26T14:59:58.530Z,10.30
2017-10-26T15:02:25.566Z,11.77
2017-10-26T15:04:52.349Z,10.63
2017-10-26T15:07:19.151Z,11.10
2017-10-26T15:09:46.222Z,10.80
2017-10-26T15:12:13.279Z,10.17
2017-10-26T15:14:40.291Z,10.83
2017-10-26T15:17:07.149Z,10.83
2017-10-26T15:19:33.934Z,8.10
2017-10-26T15:22:00.795Z,8.60
2017-10-26T15:24:27.594Z,8.73
2017-10-26T15:26:54.422Z,8.17
2017-10-26T15:29:21.198Z,8.17
2017-10-26T15:31:48.341Z,7.73
2017-10-26T15:34:15.147Z,7.20
2017-10-26T15:36:41.958Z,7.07
2017-10-26T15:39:08.758Z,7.30
2017-10-26T15:41:35.542Z,6.30
2017-10-26T15:44:02.333Z,7.37
2017-10-26T15:46:29.137Z,6.50
2017-10-26T15:48:55.921Z,6.10
2017-10-26T15:51:22.747Z,9.00
2017-10-26T15:53:49.581Z,8.20
2017-10-26T15:56:16.388Z,9.17
2017-10-26T15:58:43.200Z,8.40
2017-10-26T16:01:10.343Z,8.30
2017-10-26T16:03:37.386Z,7.50
2017-10-26T16:06:04.436Z,7.50
2017-10-26T16:08:31.237Z,6.90
2017-10-26T16:10:58.059Z,8.60
2017-10-26T16:13:25.266Z,7.97
2017-10-26T16:15:52.086Z,9.43
2017-10-26T16:18:18.874Z,8.07
2017-10-26T16:20:45.712Z,8.03
2017-10-26T16:23:12.851Z,7.60
2017-10-26T16:25:39.623Z,8.27
2017-10-26T16:28:06.408Z,6.47
2017-10-26T16:30:33.213Z,8.50
2017-10-26T16:33:00.327Z,7.97
2017-10-26T16:35:27.376Z,8.23
2017-10-26T16:37:54.178Z,8.57
2017-10-26T16:40:21.267Z,10.20
2017-10-26T16:42:48.075Z,9.67
2017-10-26T16:45:15.154Z,10.20
2017-10-26T16:47:42.197Z,9.57
2017-10-26T16:50:09.252Z,8.70
2017-10-26T16:52:36.404Z,10.50
2017-10-26T16:55:03.215Z,9.50
2017-10-26T16:57:30.023Z,8.23
2017-10-26T16:59:56.856Z,8.20
2017-10-26T17:02:23.643Z,8.90
2017-10-26T17:04:50.818Z,7.50
2017-10-26T17:07:17.971Z,8.40
2017-10-26T17:09:44.750Z,6.97
2017-10-26T17:12:11.568Z,9.10
2017-10-26T17:14:38.410Z,8.50
2017-10-26T17:17:05.213Z,7.10
2017-10-26T17:19:32.289Z,7.27
2017-10-26T17:21:59.090Z,7.10
2017-10-26T17:24:26.360Z,7.80
2017-10-26T17:26:53.159Z,7.00
2017-10-26T17:29:20.011Z,47.07
2017-10-26T17:31:47.119Z,5.93
2017-10-26T17:34:13.894Z,6.97
2017-10-26T17:36:41.011Z,6.17
2017-10-26T17:39:08.164Z,6.00
2017-10-26T17:41:34.954Z,5.27
2017-10-26T17:44:01.799Z,5.53
2017-10-26T17:46:28.610Z,6.10
2017-10-26T17:48:55.389Z,6.13
2017-10-26T17:51:22.480Z,5.00
2017-10-26T17:53:49.258Z,5.00
2017-10-26T17:56:16.373Z,5.40
2017-10-26T17:58:43.436Z,5.87
2017-10-26T18:01:10.564Z,7.67
2017-10-26T18:03:37.379Z,6.30
2017-10-26T18:06:04.216Z,6.03
2017-10-26T18:08:31.024Z,6.00
2017-10-26T18:10:58.144Z,6.27
2017-10-26T18:13:24.986Z,6.70
2017-10-26T18:15:52.030Z,6.07
2017-10-26T18:18:18.817Z,6.50
2017-10-26T18:20:45.930Z,6.00
2017-10-26T18:23:12.735Z,5.80
2017-10-26T18:25:39.516Z,7.63
2017-10-26T18:28:06.359Z,6.40
2017-10-26T18:30:33.168Z,6.50
2017-10-26T18:32:59.946Z,6.40
2017-10-26T18:35:26.791Z,6.00
2017-10-26T18:37:53.611Z,9.03
2017-10-26T18:40:20.610Z,7.47
2017-10-26T18:42:47.714Z,7.90
2017-10-26T18:45:14.506Z,8.03
2017-10-26T18:47:41.314Z,7.30
2017-10-26T18:50:08.346Z,7.80
2017-10-26T18:52:35.183Z,7.80
2017-10-26T18:55:02.247Z,8.17
2017-10-26T18:57:29.059Z,7.67
2017-10-26T18:59:55.845Z,7.77
2017-10-26T19:02:22.664Z,9.00
2017-10-26T19:04:49.693Z,8.03
2017-10-26T19:07:16.510Z,9.63
2017-10-26T19:09:43.608Z,8.40
2017-10-26T19:12:10.451Z,9.70
2017-10-26T19:14:37.493Z,9.73
2017-10-26T19:17:04.307Z,9.60
2017-10-26T19:19:31.114Z,8.40
2017-10-26T19:21:57.898Z,9.07
2017-10-26T19:24:24.718Z,8.40
2017-10-26T19:26:51.534Z,9.27
2017-10-26T19:29:18.318Z,10.70
2017-10-26T19:31:45.404Z,10.33
2017-10-26T19:34:12.220Z,9.30
2017-10-26T19:36:39.028Z,9.37
2017-10-26T19:39:05.806Z,9.03
2017-10-26T19:41:32.979Z,8.60
2017-10-26T19:44:03.654Z,9.13
2017-10-26T19:46:30.731Z,10.03
2017-10-26T19:48:57.534Z,9.03
2017-10-26T19:51:24.665Z,9.90
2017-10-26T19:53:51.698Z,9.43
2017-10-26T19:56:18.550Z,9.90
2017-10-26T19:58:45.327Z,9.00
2017-10-26T20:01:12.438Z,8.07
2017-10-26T20:03:39.251Z,8.67
2017-10-26T20:06:06.076Z,8.50
2017-10-26T20:08:32.887Z,9.90
2017-10-26T20:10:59.720Z,15.90
2017-10-26T20:13:26.502Z,8.70
2017-10-26T20:15:53.595Z,8.77
2017-10-26T20:18:20.426Z,8.30
2017-10-26T20:20:47.258Z,8.20
2017-10-26T20:23:14.065Z,8.20
2017-10-26T20:25:41.170Z,8.00
2017-10-26T20:28:07.984Z,7.70
2017-10-26T20:30:34.766Z,8.67
2017-10-26T20:33:02.007Z,9.13
2017-10-26T20:35:28.819Z,8.87
2017-10-26T20:37:55.639Z,9.40
2017-10-26T20:40:22.441Z,7.33
2017-10-26T20:42:49.222Z,6.97
2017-10-26T20:45:16.018Z,7.40
2017-10-26T20:47:43.171Z,9.83
2017-10-26T20:50:10.217Z,8.53
2017-10-26T20:52:37.000Z,6.57
2017-10-26T20:55:03.797Z,6.63
2017-10-26T20:57:30.611Z,6.03
2017-10-26T20:59:57.444Z,6.37
2017-10-26T21:02:24.536Z,5.90
2017-10-26T21:04:59.054Z,7.40
2017-10-26T21:07:26.106Z,6.63
2017-10-26T21:09:52.958Z,4.93
2017-10-26T21:12:19.820Z,6.53
2017-10-26T21:14:46.956Z,21.67
2017-10-26T21:17:14.103Z,7.40
2017-10-26T21:19:40.972Z,5.77
2017-10-26T21:22:07.780Z,5.70
2017-10-26T21:24:34.617Z,4.80
2017-10-26T21:27:01.435Z,5.43
2017-10-26T21:29:28.523Z,4.63
2017-10-26T21:31:55.676Z,5.17
2017-10-26T21:34:22.824Z,5.20
2017-10-26T21:36:49.870Z,5.07
2017-10-26T21:39:16.687Z,4.67
2017-10-26T21:41:43.759Z,5.67
2017-10-26T21:44:10.911Z,4.10
2017-10-26T21:46:38.060Z,4.23
2017-10-26T21:49:05.211Z,5.30
2017-10-26T21:51:32.072Z,4.20
2017-10-26T21:53:58.910Z,4.30
2017-10-26T21:56:25.764Z,3.70
2017-10-26T21:58:52.896Z,3.83
2017-10-26T22:01:19.728Z,3.97
2017-10-26T22:03:46.609Z,4.53
2017-10-26T22:06:13.439Z,5.63
2017-10-26T22:08:40.576Z,3.70
2017-10-26T22:11:07.419Z,3.60
2017-10-26T22:13:34.568Z,3.60
2017-10-26T22:16:01.720Z,4.43
2017-10-26T22:18:28.868Z,3.60
2017-10-26T22:20:55.701Z,4.67
2017-10-26T22:23:22.870Z,4.53
2017-10-26T22:25:49.684Z,3.63
2017-10-26T22:28:16.773Z,4.80
2017-10-26T22:30:43.640Z,4.07
2017-10-26T22:33:10.497Z,4.57
2017-10-26T22:35:37.336Z,4.57
2017-10-26T22:38:04.162Z,5.10
2017-10-26T22:43:05.040Z,4.73
2017-10-26T22:45:31.915Z,5.80
2017-10-26T22:47:58.971Z,4.87
2017-10-26T22:50:25.820Z,4.60
2017-10-26T22:52:52.644Z,4.43
2017-10-26T22:55:19.703Z,5.50
2017-10-26T22:57:46.572Z,5.93
2017-10-26T23:00:13.425Z,5.40
2017-10-26T23:02:40.314Z,5.57
2017-10-26T23:05:07.439Z,6.10
2017-10-26T23:07:34.288Z,5.83
2017-10-26T23:10:01.116Z,4.90
2017-10-26T23:12:27.961Z,5.70
2017-10-26T23:14:55.063Z,5.87
2017-10-26T23:17:21.891Z,5.00
2017-10-26T23:19:48.732Z,5.43
2017-10-26T23:22:15.569Z,5.00
2017-10-26T23:24:42.440Z,6.97
2017-10-26T23:27:09.280Z,5.53
2017-10-26T23:29:36.122Z,5.03
2017-10-26T23:32:03.025Z,5.43
2017-10-26T23:34:29.835Z,4.87
2017-10-26T23:36:56.727Z,4.03
2017-10-26T23:39:23.535Z,4.83
2017-10-26T23:41:50.344Z,4.77
2017-10-26T23:44:17.228Z,5.30
2017-10-26T23:46:44.088Z,4.20
2017-10-26T23:49:10.993Z,4.97
2017-10-26T23:51:37.869Z,4.53
2017-10-26T23:54:04.695Z,5.07
2017-10-26T23:56:31.809Z,5.07
2017-10-26T23:58:58.652Z,5.80
